Bakewell, Tennessee
Current Conditions -  °F | °C
As of 8:15 AM on Thursday 18 Dec 2014 (Local Time) from KRZR Reporting Station
Overcast Overcast  
Wind Chill: 29°   Ceiling: 6000
Heat Index: 34°   Visibility: 10mi
Dew Point: 30°   Wind: 6mph
Humidity: 87%   Direction: 30°NNE
Pressure: 30.21"   Gusts: NA
Location:  35.34°N, 85.13°W
Report Text: KRZR 181315Z AUTO 03005KT 10SM FEW045 BKN060 OVC095 01/M01 A3021 RMK
Loading
Personal Weather Stations






























Interactive Weather Map New forecast layout! Learn more

10-Day Weather Forecast

Advertisements
Track Severe Weather on mobile